createdAt,value
2018-11-05T00:01:43.142Z,51.19
2018-11-05T00:11:45.444Z,50.85
2018-11-05T00:21:47.859Z,51.22
2018-11-05T00:31:50.196Z,51.25
2018-11-05T00:41:53.458Z,50.92
2018-11-05T00:51:56.356Z,51.38
2018-11-05T01:01:58.779Z,50.92
2018-11-05T01:12:02.386Z,50.79
2018-11-05T01:22:04.937Z,51.32
2018-11-05T01:32:08.492Z,51.02
2018-11-05T01:42:11.390Z,50.72
2018-11-05T01:52:13.941Z,51.00
2018-11-05T02:02:16.441Z,51.02
2018-11-05T02:12:18.917Z,50.80
2018-11-05T02:22:21.590Z,51.59
2018-11-05T02:32:23.983Z,51.42
2018-11-05T02:42:26.892Z,51.50
2018-11-05T02:52:29.999Z,51.36
2018-11-05T03:02:32.449Z,51.56
2018-11-05T03:12:35.453Z,51.67
2018-11-05T03:22:38.430Z,50.82
2018-11-05T03:32:41.830Z,51.22
2018-11-05T03:42:47.522Z,50.92
2018-11-05T03:52:49.969Z,51.26
2018-11-05T04:02:53.758Z,50.53
2018-11-05T04:12:57.834Z,51.27
2018-11-05T04:23:00.211Z,51.36
2018-11-05T04:33:03.188Z,51.05
2018-11-05T04:43:05.617Z,51.05
2018-11-05T04:53:08.695Z,51.68
2018-11-05T05:03:11.146Z,51.32
2018-11-05T05:13:13.525Z,51.40
2018-11-05T05:23:16.026Z,50.79
2018-11-05T05:33:18.551Z,50.72
2018-11-05T05:43:21.389Z,50.79
2018-11-05T05:53:23.815Z,50.92
2018-11-05T06:03:26.281Z,50.87
2018-11-05T06:13:29.556Z,50.77
2018-11-05T06:23:34.139Z,51.29
2018-11-05T06:33:36.717Z,51.26
2018-11-05T06:43:39.286Z,51.27
2018-11-05T06:53:41.758Z,51.24
2018-11-05T07:03:44.181Z,50.72
2018-11-05T07:13:46.639Z,51.17
2018-11-05T07:23:49.486Z,51.46
2018-11-05T07:33:52.701Z,51.03
2018-11-05T07:43:55.049Z,53.08
2018-11-05T07:53:57.495Z,51.42
2018-11-05T08:04:00.043Z,51.20
2018-11-05T08:14:02.862Z,53.48
2018-11-05T08:24:05.394Z,52.31
2018-11-05T08:34:07.919Z,52.84
2018-11-05T08:44:11.433Z,52.24
2018-11-05T08:54:14.179Z,51.62
2018-11-05T09:04:16.489Z,51.51
2018-11-05T09:14:18.928Z,51.17
2018-11-05T09:24:21.299Z,51.71
2018-11-05T09:34:24.578Z,51.80
2018-11-05T09:44:28.538Z,50.89
2018-11-05T09:54:30.974Z,50.82
2018-11-05T10:04:33.639Z,51.87
2018-11-05T10:14:36.416Z,50.80
2018-11-05T10:24:39.527Z,51.19
2018-11-05T10:34:41.802Z,50.22
2018-11-05T10:44:44.121Z,50.19
2018-11-05T10:54:46.433Z,51.63
2018-11-05T11:04:48.769Z,50.81
2018-11-05T11:14:51.273Z,50.79
2018-11-05T11:24:53.606Z,52.34
2018-11-05T11:34:55.960Z,50.23
2018-11-05T11:44:58.815Z,50.16
2018-11-05T11:55:01.381Z,49.52
2018-11-05T12:05:03.980Z,49.03
2018-11-05T12:15:06.527Z,49.01
2018-11-05T12:25:09.186Z,49.16
2018-11-05T12:35:12.448Z,48.78
2018-11-05T12:45:17.151Z,49.02
2018-11-05T12:55:20.554Z,49.28
2018-11-05T13:05:23.305Z,49.61
2018-11-05T13:15:25.763Z,49.10
2018-11-05T13:25:28.030Z,48.20
2018-11-05T13:35:30.522Z,49.17
2018-11-05T13:45:34.971Z,48.62
2018-11-05T13:55:37.569Z,48.56
2018-11-05T14:05:39.963Z,48.18
2018-11-05T14:15:42.298Z,47.90
2018-11-05T14:25:44.807Z,48.21
2018-11-05T14:35:47.163Z,48.19
2018-11-05T14:45:49.737Z,49.40
2018-11-05T14:55:52.181Z,48.08
2018-11-05T15:05:54.522Z,48.44
2018-11-05T15:15:57.023Z,47.44
2018-11-05T15:25:59.445Z,47.37
2018-11-05T15:36:01.870Z,46.83
2018-11-05T15:46:04.582Z,47.41
2018-11-05T15:56:06.948Z,47.51
2018-11-05T16:06:10.482Z,46.75
2018-11-05T16:16:12.852Z,46.51
2018-11-05T16:26:15.334Z,46.97
2018-11-05T16:36:17.694Z,46.75
2018-11-05T16:46:20.158Z,47.61
2018-11-05T16:56:22.471Z,47.57
2018-11-05T17:06:24.834Z,48.43
2018-11-05T17:16:27.318Z,48.34
2018-11-05T17:26:29.910Z,47.81
2018-11-05T17:36:32.433Z,47.81
2018-11-05T17:46:34.922Z,47.83
2018-11-05T17:56:37.251Z,48.66
2018-11-05T18:06:39.574Z,47.78
2018-11-05T18:16:41.873Z,47.85
2018-11-05T18:26:44.212Z,47.45
2018-11-05T18:36:46.550Z,46.99
2018-11-05T18:46:49.041Z,47.19
2018-11-05T18:56:51.418Z,46.61
2018-11-05T19:06:53.684Z,45.98
2018-11-05T19:16:56.028Z,46.73
2018-11-05T19:26:58.329Z,47.16
2018-11-05T19:37:00.666Z,47.57
2018-11-05T19:47:02.973Z,46.89
2018-11-05T19:57:05.487Z,46.60
2018-11-05T20:07:07.837Z,47.25
2018-11-05T20:17:10.146Z,47.07
2018-11-05T20:27:12.485Z,47.30
2018-11-05T20:37:14.990Z,47.25
2018-11-05T20:47:17.342Z,46.80
2018-11-05T20:57:19.815Z,46.36
2018-11-05T21:07:22.146Z,46.82
2018-11-05T21:17:24.474Z,47.81
2018-11-05T21:27:26.824Z,48.01
2018-11-05T21:37:29.342Z,48.66
2018-11-05T21:47:31.996Z,49.19
2018-11-05T21:57:34.378Z,48.80
2018-11-05T22:07:36.716Z,49.18
2018-11-05T22:17:39.588Z,48.98
2018-11-05T22:27:42.469Z,49.57
2018-11-05T22:37:44.960Z,49.49
2018-11-05T22:47:47.881Z,50.05
2018-11-05T22:57:51.203Z,49.76
2018-11-05T23:07:54.560Z,49.87
2018-11-05T23:17:57.314Z,49.87
2018-11-05T23:28:00.177Z,50.26
2018-11-05T23:38:02.606Z,49.93
2018-11-05T23:48:05.350Z,50.37
2018-11-05T23:58:07.891Z,49.41
